sensor_id;sensor_type;location;lat;lon;timestamp;P1;durP1;ratioP1;P2;durP2;ratioP2
54795;SDS011;40693;43.884;20.340;2024-01-30T00:00:15;110.70;;;63.00;;
54795;SDS011;40693;43.884;20.340;2024-01-30T00:02:41;112.23;;;61.73;;
54795;SDS011;40693;43.884;20.340;2024-01-30T00:05:08;136.57;;;78.93;;
54795;SDS011;40693;43.884;20.340;2024-01-30T00:07:34;126.60;;;65.13;;
54795;SDS011;40693;43.884;20.340;2024-01-30T00:09:59;112.60;;;61.53;;
54795;SDS011;40693;43.884;20.340;2024-01-30T00:12:25;121.20;;;62.63;;
54795;SDS011;40693;43.884;20.340;2024-01-30T00:14:51;101.30;;;58.57;;
54795;SDS011;40693;43.884;20.340;2024-01-30T00:17:17;94.53;;;53.53;;
54795;SDS011;40693;43.884;20.340;2024-01-30T00:19:44;112.23;;;60.13;;
54795;SDS011;40693;43.884;20.340;2024-01-30T00:22:10;109.90;;;58.17;;
54795;SDS011;40693;43.884;20.340;2024-01-30T00:24:35;92.40;;;54.40;;
54795;SDS011;40693;43.884;20.340;2024-01-30T00:27:01;109.90;;;60.60;;
54795;SDS011;40693;43.884;20.340;2024-01-30T00:29:27;114.93;;;62.90;;
54795;SDS011;40693;43.884;20.340;2024-01-30T00:31:56;121.83;;;63.63;;
54795;SDS011;40693;43.884;20.340;2024-01-30T00:34:21;114.87;;;61.47;;
54795;SDS011;40693;43.884;20.340;2024-01-30T00:36:47;110.40;;;57.63;;
54795;SDS011;40693;43.884;20.340;2024-01-30T00:39:13;94.07;;;55.00;;
54795;SDS011;40693;43.884;20.340;2024-01-30T00:41:40;93.60;;;51.43;;
54795;SDS011;40693;43.884;20.340;2024-01-30T00:44:06;95.23;;;49.80;;
54795;SDS011;40693;43.884;20.340;2024-01-30T00:46:32;81.60;;;44.53;;
54795;SDS011;40693;43.884;20.340;2024-01-30T00:48:58;86.63;;;46.13;;
54795;SDS011;40693;43.884;20.340;2024-01-30T00:51:23;70.30;;;38.80;;
54795;SDS011;40693;43.884;20.340;2024-01-30T00:53:49;78.23;;;41.80;;
54795;SDS011;40693;43.884;20.340;2024-01-30T00:56:15;69.03;;;39.80;;
54795;SDS011;40693;43.884;20.340;2024-01-30T00:58:43;84.30;;;42.47;;
54795;SDS011;40693;43.884;20.340;2024-01-30T01:01:09;93.20;;;51.07;;
54795;SDS011;40693;43.884;20.340;2024-01-30T01:03:34;86.77;;;42.73;;
54795;SDS011;40693;43.884;20.340;2024-01-30T01:06:00;80.43;;;42.57;;
54795;SDS011;40693;43.884;20.340;2024-01-30T01:08:26;94.83;;;48.13;;
54795;SDS011;40693;43.884;20.340;2024-01-30T01:10:52;86.20;;;48.30;;
54795;SDS011;40693;43.884;20.340;2024-01-30T01:13:17;88.80;;;50.40;;
54795;SDS011;40693;43.884;20.340;2024-01-30T01:15:43;75.80;;;46.33;;
54795;SDS011;40693;43.884;20.340;2024-01-30T01:18:09;89.33;;;49.43;;
54795;SDS011;40693;43.884;20.340;2024-01-30T01:20:34;85.30;;;46.67;;
54795;SDS011;40693;43.884;20.340;2024-01-30T01:23:00;83.47;;;46.27;;
54795;SDS011;40693;43.884;20.340;2024-01-30T01:25:26;76.33;;;42.10;;
54795;SDS011;40693;43.884;20.340;2024-01-30T01:27:52;80.80;;;42.03;;
54795;SDS011;40693;43.884;20.340;2024-01-30T01:30:18;67.43;;;38.70;;
54795;SDS011;40693;43.884;20.340;2024-01-30T01:32:50;58.43;;;34.10;;
54795;SDS011;40693;43.884;20.340;2024-01-30T01:35:23;64.80;;;35.03;;
54795;SDS011;40693;43.884;20.340;2024-01-30T01:37:52;79.40;;;41.42;;
54795;SDS011;40693;43.884;20.340;2024-01-30T01:40:23;84.83;;;48.73;;
54795;SDS011;40693;43.884;20.340;2024-01-30T01:42:52;101.03;;;56.27;;
54795;SDS011;40693;43.884;20.340;2024-01-30T01:45:19;87.30;;;45.60;;
54795;SDS011;40693;43.884;20.340;2024-01-30T01:47:46;68.27;;;38.07;;
54795;SDS011;40693;43.884;20.340;2024-01-30T01:50:15;77.43;;;44.13;;
54795;SDS011;40693;43.884;20.340;2024-01-30T01:52:44;83.67;;;47.90;;
54795;SDS011;40693;43.884;20.340;2024-01-30T01:55:13;90.67;;;48.20;;
54795;SDS011;40693;43.884;20.340;2024-01-30T01:57:40;94.63;;;51.40;;
54795;SDS011;40693;43.884;20.340;2024-01-30T02:00:07;84.40;;;46.57;;
54795;SDS011;40693;43.884;20.340;2024-01-30T02:02:35;75.33;;;38.17;;
54795;SDS011;40693;43.884;20.340;2024-01-30T02:05:02;69.40;;;38.03;;
54795;SDS011;40693;43.884;20.340;2024-01-30T02:07:29;54.17;;;29.47;;
54795;SDS011;40693;43.884;20.340;2024-01-30T02:09:55;52.40;;;28.93;;
54795;SDS011;40693;43.884;20.340;2024-01-30T02:12:21;46.73;;;26.67;;
54795;SDS011;40693;43.884;20.340;2024-01-30T02:14:47;52.53;;;30.13;;
54795;SDS011;40693;43.884;20.340;2024-01-30T02:17:14;102.73;;;54.00;;
54795;SDS011;40693;43.884;20.340;2024-01-30T02:19:40;131.00;;;68.53;;
54795;SDS011;40693;43.884;20.340;2024-01-30T02:22:06;172.97;;;85.53;;
54795;SDS011;40693;43.884;20.340;2024-01-30T02:24:33;147.60;;;84.70;;
54795;SDS011;40693;43.884;20.340;2024-01-30T02:26:58;126.97;;;71.37;;
54795;SDS011;40693;43.884;20.340;2024-01-30T02:29:24;122.70;;;65.30;;
54795;SDS011;40693;43.884;20.340;2024-01-30T02:31:50;133.23;;;74.63;;
54795;SDS011;40693;43.884;20.340;2024-01-30T02:34:16;162.30;;;83.20;;
54795;SDS011;40693;43.884;20.340;2024-01-30T02:36:42;160.77;;;81.37;;
54795;SDS011;40693;43.884;20.340;2024-01-30T02:39:08;144.23;;;73.30;;
54795;SDS011;40693;43.884;20.340;2024-01-30T02:41:34;124.90;;;68.03;;
54795;SDS011;40693;43.884;20.340;2024-01-30T02:44:01;157.57;;;83.10;;
54795;SDS011;40693;43.884;20.340;2024-01-30T02:46:27;120.03;;;67.60;;
54795;SDS011;40693;43.884;20.340;2024-01-30T02:48:53;122.07;;;68.73;;
54795;SDS011;40693;43.884;20.340;2024-01-30T02:51:18;107.50;;;57.80;;
54795;SDS011;40693;43.884;20.340;2024-01-30T02:53:44;127.40;;;66.47;;
54795;SDS011;40693;43.884;20.340;2024-01-30T02:56:10;109.07;;;61.53;;
54795;SDS011;40693;43.884;20.340;2024-01-30T02:58:37;124.17;;;66.60;;
54795;SDS011;40693;43.884;20.340;2024-01-30T03:01:02;114.63;;;55.97;;
54795;SDS011;40693;43.884;20.340;2024-01-30T03:03:28;141.73;;;68.10;;
54795;SDS011;40693;43.884;20.340;2024-01-30T03:05:54;159.90;;;78.63;;
54795;SDS011;40693;43.884;20.340;2024-01-30T03:08:20;153.23;;;74.93;;
54795;SDS011;40693;43.884;20.340;2024-01-30T03:10:46;122.03;;;61.63;;
54795;SDS011;40693;43.884;20.340;2024-01-30T03:13:11;122.10;;;53.30;;
54795;SDS011;40693;43.884;20.340;2024-01-30T03:15:37;134.30;;;61.80;;
54795;SDS011;40693;43.884;20.340;2024-01-30T03:18:03;110.97;;;55.60;;
54795;SDS011;40693;43.884;20.340;2024-01-30T03:20:29;96.57;;;50.00;;
54795;SDS011;40693;43.884;20.340;2024-01-30T03:22:55;122.00;;;62.10;;
54795;SDS011;40693;43.884;20.340;2024-01-30T03:25:21;155.37;;;77.23;;
54795;SDS011;40693;43.884;20.340;2024-01-30T03:27:47;140.40;;;74.90;;
54795;SDS011;40693;43.884;20.340;2024-01-30T03:30:12;122.03;;;59.77;;
54795;SDS011;40693;43.884;20.340;2024-01-30T03:32:38;112.57;;;57.77;;
54795;SDS011;40693;43.884;20.340;2024-01-30T03:35:04;133.37;;;66.07;;
54795;SDS011;40693;43.884;20.340;2024-01-30T03:37:30;106.07;;;57.27;;
54795;SDS011;40693;43.884;20.340;2024-01-30T03:39:56;89.20;;;49.13;;
54795;SDS011;40693;43.884;20.340;2024-01-30T03:42:22;85.60;;;46.40;;
54795;SDS011;40693;43.884;20.340;2024-01-30T03:44:48;102.13;;;52.77;;
54795;SDS011;40693;43.884;20.340;2024-01-30T03:47:17;84.13;;;43.23;;
54795;SDS011;40693;43.884;20.340;2024-01-30T03:49:42;112.77;;;57.73;;
54795;SDS011;40693;43.884;20.340;2024-01-30T03:52:08;86.17;;;48.20;;
54795;SDS011;40693;43.884;20.340;2024-01-30T03:54:34;94.80;;;48.67;;
54795;SDS011;40693;43.884;20.340;2024-01-30T03:57:00;109.77;;;56.40;;
54795;SDS011;40693;43.884;20.340;2024-01-30T03:59:25;75.50;;;37.93;;
54795;SDS011;40693;43.884;20.340;2024-01-30T04:01:51;76.07;;;38.90;;
54795;SDS011;40693;43.884;20.340;2024-01-30T04:04:20;74.33;;;41.50;;
54795;SDS011;40693;43.884;20.340;2024-01-30T04:06:46;75.60;;;39.47;;
54795;SDS011;40693;43.884;20.340;2024-01-30T04:09:12;72.80;;;42.00;;
54795;SDS011;40693;43.884;20.340;2024-01-30T04:11:41;90.50;;;47.83;;
54795;SDS011;40693;43.884;20.340;2024-01-30T04:14:07;89.17;;;51.57;;
54795;SDS011;40693;43.884;20.340;2024-01-30T04:16:33;88.40;;;48.87;;
54795;SDS011;40693;43.884;20.340;2024-01-30T04:18:59;87.70;;;45.10;;
54795;SDS011;40693;43.884;20.340;2024-01-30T04:21:25;92.00;;;50.30;;
54795;SDS011;40693;43.884;20.340;2024-01-30T04:23:51;101.80;;;54.37;;
54795;SDS011;40693;43.884;20.340;2024-01-30T04:26:17;108.30;;;57.80;;
54795;SDS011;40693;43.884;20.340;2024-01-30T04:28:44;115.13;;;58.43;;
54795;SDS011;40693;43.884;20.340;2024-01-30T04:31:10;103.07;;;53.17;;
54795;SDS011;40693;43.884;20.340;2024-01-30T04:33:36;77.10;;;45.10;;
54795;SDS011;40693;43.884;20.340;2024-01-30T04:36:02;86.37;;;46.70;;
54795;SDS011;40693;43.884;20.340;2024-01-30T04:38:28;81.57;;;43.93;;
54795;SDS011;40693;43.884;20.340;2024-01-30T04:40:54;84.33;;;44.30;;
54795;SDS011;40693;43.884;20.340;2024-01-30T04:43:20;95.63;;;45.87;;
54795;SDS011;40693;43.884;20.340;2024-01-30T04:45:46;91.83;;;45.00;;
54795;SDS011;40693;43.884;20.340;2024-01-30T04:48:12;78.67;;;42.10;;
54795;SDS011;40693;43.884;20.340;2024-01-30T04:50:38;89.30;;;47.17;;
54795;SDS011;40693;43.884;20.340;2024-01-30T04:53:04;81.40;;;45.53;;
54795;SDS011;40693;43.884;20.340;2024-01-30T04:55:30;79.73;;;45.27;;
54795;SDS011;40693;43.884;20.340;2024-01-30T04:57:56;83.93;;;47.97;;
54795;SDS011;40693;43.884;20.340;2024-01-30T05:00:21;86.13;;;47.87;;
54795;SDS011;40693;43.884;20.340;2024-01-30T05:02:47;83.43;;;44.07;;
54795;SDS011;40693;43.884;20.340;2024-01-30T05:05:13;91.83;;;47.60;;
54795;SDS011;40693;43.884;20.340;2024-01-30T05:07:40;88.03;;;47.67;;
54795;SDS011;40693;43.884;20.340;2024-01-30T05:10:06;85.53;;;50.23;;
54795;SDS011;40693;43.884;20.340;2024-01-30T05:12:33;86.70;;;47.17;;
54795;SDS011;40693;43.884;20.340;2024-01-30T05:14:59;82.10;;;43.00;;
54795;SDS011;40693;43.884;20.340;2024-01-30T05:17:25;76.33;;;41.90;;
54795;SDS011;40693;43.884;20.340;2024-01-30T05:19:50;69.13;;;40.33;;
54795;SDS011;40693;43.884;20.340;2024-01-30T05:22:16;79.27;;;41.23;;
54795;SDS011;40693;43.884;20.340;2024-01-30T05:24:43;79.67;;;40.33;;
54795;SDS011;40693;43.884;20.340;2024-01-30T05:27:10;71.67;;;36.83;;
54795;SDS011;40693;43.884;20.340;2024-01-30T05:29:38;88.50;;;47.57;;
54795;SDS011;40693;43.884;20.340;2024-01-30T05:32:04;97.17;;;53.47;;
54795;SDS011;40693;43.884;20.340;2024-01-30T05:34:33;90.97;;;46.47;;
54795;SDS011;40693;43.884;20.340;2024-01-30T05:37:00;84.43;;;46.73;;
54795;SDS011;40693;43.884;20.340;2024-01-30T05:39:26;89.83;;;53.17;;
54795;SDS011;40693;43.884;20.340;2024-01-30T05:41:52;103.30;;;54.87;;
54795;SDS011;40693;43.884;20.340;2024-01-30T05:44:18;101.63;;;58.10;;
54795;SDS011;40693;43.884;20.340;2024-01-30T05:46:43;134.50;;;64.23;;
54795;SDS011;40693;43.884;20.340;2024-01-30T05:49:09;141.80;;;70.27;;
54795;SDS011;40693;43.884;20.340;2024-01-30T05:51:35;124.00;;;62.27;;
54795;SDS011;40693;43.884;20.340;2024-01-30T05:54:01;107.63;;;57.80;;
54795;SDS011;40693;43.884;20.340;2024-01-30T05:56:28;94.60;;;54.30;;
54795;SDS011;40693;43.884;20.340;2024-01-30T05:58:54;87.43;;;48.43;;
54795;SDS011;40693;43.884;20.340;2024-01-30T06:01:20;75.47;;;49.00;;
54795;SDS011;40693;43.884;20.340;2024-01-30T06:03:46;67.20;;;41.80;;
54795;SDS011;40693;43.884;20.340;2024-01-30T06:06:12;73.37;;;42.83;;
54795;SDS011;40693;43.884;20.340;2024-01-30T06:08:37;65.23;;;38.60;;
54795;SDS011;40693;43.884;20.340;2024-01-30T06:11:03;67.07;;;39.63;;
54795;SDS011;40693;43.884;20.340;2024-01-30T06:13:29;64.47;;;38.20;;
54795;SDS011;40693;43.884;20.340;2024-01-30T06:15:57;61.40;;;36.47;;
54795;SDS011;40693;43.884;20.340;2024-01-30T06:18:22;70.30;;;41.83;;
54795;SDS011;40693;43.884;20.340;2024-01-30T06:20:48;68.63;;;37.13;;
54795;SDS011;40693;43.884;20.340;2024-01-30T06:23:14;61.97;;;37.37;;
54795;SDS011;40693;43.884;20.340;2024-01-30T06:25:40;84.60;;;44.23;;
54795;SDS011;40693;43.884;20.340;2024-01-30T06:28:06;92.27;;;49.73;;
54795;SDS011;40693;43.884;20.340;2024-01-30T06:30:32;83.73;;;44.17;;
54795;SDS011;40693;43.884;20.340;2024-01-30T06:32:57;75.90;;;43.03;;
54795;SDS011;40693;43.884;20.340;2024-01-30T06:35:23;113.27;;;56.93;;
54795;SDS011;40693;43.884;20.340;2024-01-30T06:37:49;136.50;;;69.27;;
54795;SDS011;40693;43.884;20.340;2024-01-30T06:40:15;84.00;;;46.77;;
54795;SDS011;40693;43.884;20.340;2024-01-30T06:42:41;67.20;;;38.73;;
54795;SDS011;40693;43.884;20.340;2024-01-30T06:45:07;60.77;;;37.40;;
54795;SDS011;40693;43.884;20.340;2024-01-30T06:47:33;76.80;;;39.67;;
54795;SDS011;40693;43.884;20.340;2024-01-30T06:49:58;65.83;;;37.70;;
54795;SDS011;40693;43.884;20.340;2024-01-30T06:52:24;75.80;;;40.17;;
54795;SDS011;40693;43.884;20.340;2024-01-30T06:54:50;82.73;;;44.47;;
54795;SDS011;40693;43.884;20.340;2024-01-30T06:57:16;161.80;;;89.37;;
54795;SDS011;40693;43.884;20.340;2024-01-30T06:59:42;132.27;;;72.07;;
54795;SDS011;40693;43.884;20.340;2024-01-30T07:02:11;119.77;;;62.83;;
54795;SDS011;40693;43.884;20.340;2024-01-30T07:04:37;122.23;;;65.87;;
54795;SDS011;40693;43.884;20.340;2024-01-30T07:07:04;115.83;;;67.10;;
54795;SDS011;40693;43.884;20.340;2024-01-30T07:09:30;109.77;;;60.80;;
54795;SDS011;40693;43.884;20.340;2024-01-30T07:11:56;97.97;;;59.43;;
54795;SDS011;40693;43.884;20.340;2024-01-30T07:14:25;83.87;;;46.60;;
54795;SDS011;40693;43.884;20.340;2024-01-30T07:16:50;65.93;;;38.87;;
54795;SDS011;40693;43.884;20.340;2024-01-30T07:19:16;67.23;;;39.27;;
54795;SDS011;40693;43.884;20.340;2024-01-30T07:21:42;59.43;;;35.13;;
54795;SDS011;40693;43.884;20.340;2024-01-30T07:24:08;46.63;;;30.13;;
54795;SDS011;40693;43.884;20.340;2024-01-30T07:26:33;53.53;;;30.17;;
54795;SDS011;40693;43.884;20.340;2024-01-30T07:29:00;66.67;;;36.03;;
54795;SDS011;40693;43.884;20.340;2024-01-30T07:31:32;79.90;;;44.77;;
54795;SDS011;40693;43.884;20.340;2024-01-30T07:33:58;68.93;;;41.47;;
54795;SDS011;40693;43.884;20.340;2024-01-30T07:36:27;64.73;;;35.70;;
54795;SDS011;40693;43.884;20.340;2024-01-30T07:38:54;51.87;;;33.70;;
54795;SDS011;40693;43.884;20.340;2024-01-30T07:41:20;59.23;;;36.13;;
54795;SDS011;40693;43.884;20.340;2024-01-30T07:43:49;69.87;;;41.60;;
54795;SDS011;40693;43.884;20.340;2024-01-30T07:46:15;68.40;;;39.63;;
54795;SDS011;40693;43.884;20.340;2024-01-30T07:48:41;60.60;;;37.37;;
54795;SDS011;40693;43.884;20.340;2024-01-30T07:51:07;81.60;;;46.40;;
54795;SDS011;40693;43.884;20.340;2024-01-30T07:53:33;71.70;;;40.77;;
54795;SDS011;40693;43.884;20.340;2024-01-30T07:55:58;59.97;;;35.00;;
54795;SDS011;40693;43.884;20.340;2024-01-30T07:58:24;61.47;;;34.13;;
54795;SDS011;40693;43.884;20.340;2024-01-30T08:00:52;77.37;;;44.53;;
54795;SDS011;40693;43.884;20.340;2024-01-30T08:03:18;71.93;;;42.97;;
54795;SDS011;40693;43.884;20.340;2024-01-30T08:05:44;68.47;;;39.13;;
54795;SDS011;40693;43.884;20.340;2024-01-30T08:08:10;58.47;;;35.73;;
54795;SDS011;40693;43.884;20.340;2024-01-30T08:10:36;51.87;;;33.60;;
54795;SDS011;40693;43.884;20.340;2024-01-30T08:13:01;77.43;;;45.70;;
54795;SDS011;40693;43.884;20.340;2024-01-30T08:15:27;78.30;;;45.17;;
54795;SDS011;40693;43.884;20.340;2024-01-30T08:17:53;83.50;;;50.03;;
54795;SDS011;40693;43.884;20.340;2024-01-30T08:20:23;91.90;;;52.53;;
54795;SDS011;40693;43.884;20.340;2024-01-30T08:22:49;90.70;;;52.07;;
54795;SDS011;40693;43.884;20.340;2024-01-30T08:25:15;87.10;;;53.87;;
54795;SDS011;40693;43.884;20.340;2024-01-30T08:27:41;89.47;;;53.80;;
54795;SDS011;40693;43.884;20.340;2024-01-30T08:30:07;91.37;;;51.83;;
54795;SDS011;40693;43.884;20.340;2024-01-30T08:32:33;78.73;;;47.77;;
54795;SDS011;40693;43.884;20.340;2024-01-30T08:34:59;76.60;;;44.53;;
54795;SDS011;40693;43.884;20.340;2024-01-30T08:37:25;76.07;;;45.10;;
54795;SDS011;40693;43.884;20.340;2024-01-30T08:39:50;57.70;;;38.13;;
54795;SDS011;40693;43.884;20.340;2024-01-30T08:42:16;64.33;;;37.40;;
54795;SDS011;40693;43.884;20.340;2024-01-30T08:44:47;66.03;;;39.80;;
54795;SDS011;40693;43.884;20.340;2024-01-30T08:47:17;63.93;;;38.17;;
54795;SDS011;40693;43.884;20.340;2024-01-30T08:49:43;65.53;;;38.20;;
54795;SDS011;40693;43.884;20.340;2024-01-30T08:52:12;67.77;;;37.80;;
54795;SDS011;40693;43.884;20.340;2024-01-30T08:54:38;63.90;;;38.20;;
54795;SDS011;40693;43.884;20.340;2024-01-30T08:57:04;64.47;;;40.83;;
54795;SDS011;40693;43.884;20.340;2024-01-30T08:59:29;72.03;;;41.17;;
54795;SDS011;40693;43.884;20.340;2024-01-30T09:01:55;70.87;;;42.43;;
54795;SDS011;40693;43.884;20.340;2024-01-30T09:04:23;62.47;;;38.83;;
54795;SDS011;40693;43.884;20.340;2024-01-30T09:06:49;63.90;;;39.03;;
54795;SDS011;40693;43.884;20.340;2024-01-30T09:09:15;58.50;;;36.93;;
54795;SDS011;40693;43.884;20.340;2024-01-30T09:11:41;64.97;;;38.07;;
54795;SDS011;40693;43.884;20.340;2024-01-30T09:14:06;56.87;;;36.60;;
54795;SDS011;40693;43.884;20.340;2024-01-30T09:16:32;53.87;;;32.30;;
54795;SDS011;40693;43.884;20.340;2024-01-30T09:18:59;53.87;;;32.37;;
54795;SDS011;40693;43.884;20.340;2024-01-30T09:21:25;61.17;;;38.00;;
54795;SDS011;40693;43.884;20.340;2024-01-30T09:23:52;49.88;;;30.55;;
54795;SDS011;40693;43.884;20.340;2024-01-30T09:26:19;52.92;;;29.65;;
54795;SDS011;40693;43.884;20.340;2024-01-30T09:28:45;51.83;;;33.25;;
54795;SDS011;40693;43.884;20.340;2024-01-30T09:31:13;47.80;;;31.25;;
54795;SDS011;40693;43.884;20.340;2024-01-30T09:33:39;55.17;;;34.42;;
54795;SDS011;40693;43.884;20.340;2024-01-30T09:36:06;46.08;;;31.58;;
54795;SDS011;40693;43.884;20.340;2024-01-30T09:38:32;47.15;;;29.98;;
54795;SDS011;40693;43.884;20.340;2024-01-30T09:40:58;46.97;;;31.15;;
54795;SDS011;40693;43.884;20.340;2024-01-30T09:43:33;50.38;;;31.98;;
54795;SDS011;40693;43.884;20.340;2024-01-30T09:46:02;51.75;;;33.47;;
54795;SDS011;40693;43.884;20.340;2024-01-30T09:48:29;47.53;;;32.20;;
54795;SDS011;40693;43.884;20.340;2024-01-30T09:50:56;51.97;;;34.85;;
54795;SDS011;40693;43.884;20.340;2024-01-30T09:53:23;49.72;;;35.80;;
54795;SDS011;40693;43.884;20.340;2024-01-30T09:55:50;51.20;;;39.17;;
54795;SDS011;40693;43.884;20.340;2024-01-30T09:58:16;54.33;;;40.40;;
54795;SDS011;40693;43.884;20.340;2024-01-30T10:00:42;47.55;;;33.47;;
54795;SDS011;40693;43.884;20.340;2024-01-30T10:03:08;45.58;;;32.88;;
54795;SDS011;40693;43.884;20.340;2024-01-30T10:05:35;38.25;;;27.45;;
54795;SDS011;40693;43.884;20.340;2024-01-30T10:08:05;43.45;;;30.10;;
54795;SDS011;40693;43.884;20.340;2024-01-30T10:10:34;39.90;;;29.05;;
54795;SDS011;40693;43.884;20.340;2024-01-30T10:13:00;37.85;;;29.40;;
54795;SDS011;40693;43.884;20.340;2024-01-30T10:15:27;45.78;;;31.45;;
54795;SDS011;40693;43.884;20.340;2024-01-30T10:17:54;34.08;;;24.33;;
54795;SDS011;40693;43.884;20.340;2024-01-30T10:20:19;43.65;;;30.90;;
54795;SDS011;40693;43.884;20.340;2024-01-30T10:27:41;34.60;;;24.10;;
54795;SDS011;40693;43.884;20.340;2024-01-30T10:30:07;33.53;;;25.52;;
54795;SDS011;40693;43.884;20.340;2024-01-30T10:32:33;37.63;;;24.23;;
54795;SDS011;40693;43.884;20.340;2024-01-30T10:34:59;59.45;;;36.15;;
54795;SDS011;40693;43.884;20.340;2024-01-30T10:37:25;53.58;;;33.17;;
54795;SDS011;40693;43.884;20.340;2024-01-30T10:39:54;42.70;;;25.30;;
54795;SDS011;40693;43.884;20.340;2024-01-30T10:42:25;27.70;;;18.75;;
54795;SDS011;40693;43.884;20.340;2024-01-30T10:47:48;39.83;;;24.58;;
54795;SDS011;40693;43.884;20.340;2024-01-30T10:50:15;34.45;;;24.40;;
54795;SDS011;40693;43.884;20.340;2024-01-30T10:52:41;31.75;;;21.88;;
54795;SDS011;40693;43.884;20.340;2024-01-30T10:55:07;36.33;;;24.70;;
54795;SDS011;40693;43.884;20.340;2024-01-30T10:57:36;34.55;;;22.30;;
54795;SDS011;40693;43.884;20.340;2024-01-30T11:00:06;26.38;;;19.30;;
54795;SDS011;40693;43.884;20.340;2024-01-30T11:02:40;21.55;;;15.05;;
54795;SDS011;40693;43.884;20.340;2024-01-30T11:05:08;21.67;;;16.15;;
54795;SDS011;40693;43.884;20.340;2024-01-30T11:07:34;17.75;;;12.25;;
54795;SDS011;40693;43.884;20.340;2024-01-30T11:10:01;22.30;;;13.68;;
54795;SDS011;40693;43.884;20.340;2024-01-30T11:12:32;17.83;;;11.13;;
54795;SDS011;40693;43.884;20.340;2024-01-30T11:15:08;27.20;;;18.17;;
54795;SDS011;40693;43.884;20.340;2024-01-30T11:17:49;42.10;;;28.73;;
54795;SDS011;40693;43.884;20.340;2024-01-30T11:20:29;25.38;;;20.13;;
54795;SDS011;40693;43.884;20.340;2024-01-30T11:23:00;17.88;;;12.75;;
54795;SDS011;40693;43.884;20.340;2024-01-30T11:25:31;31.48;;;20.15;;
54795;SDS011;40693;43.884;20.340;2024-01-30T11:27:57;25.63;;;17.42;;
54795;SDS011;40693;43.884;20.340;2024-01-30T11:30:26;24.38;;;17.38;;
54795;SDS011;40693;43.884;20.340;2024-01-30T11:33:06;36.60;;;20.67;;
54795;SDS011;40693;43.884;20.340;2024-01-30T11:35:39;28.47;;;19.50;;
54795;SDS011;40693;43.884;20.340;2024-01-30T11:38:15;26.65;;;15.30;;
54795;SDS011;40693;43.884;20.340;2024-01-30T11:40:41;29.92;;;18.85;;
54795;SDS011;40693;43.884;20.340;2024-01-30T11:43:09;27.98;;;19.45;;
54795;SDS011;40693;43.884;20.340;2024-01-30T11:45:35;25.42;;;15.57;;
54795;SDS011;40693;43.884;20.340;2024-01-30T11:48:01;20.67;;;12.52;;
54795;SDS011;40693;43.884;20.340;2024-01-30T11:50:32;23.75;;;16.30;;
54795;SDS011;40693;43.884;20.340;2024-01-30T11:52:59;20.92;;;13.25;;
54795;SDS011;40693;43.884;20.340;2024-01-30T11:55:25;18.15;;;11.98;;
54795;SDS011;40693;43.884;20.340;2024-01-30T11:57:54;27.95;;;16.45;;
54795;SDS011;40693;43.884;20.340;2024-01-30T12:00:21;18.38;;;11.90;;
54795;SDS011;40693;43.884;20.340;2024-01-30T12:02:50;18.77;;;9.90;;
54795;SDS011;40693;43.884;20.340;2024-01-30T12:05:20;14.05;;;9.82;;
54795;SDS011;40693;43.884;20.340;2024-01-30T12:07:47;12.30;;;8.68;;
54795;SDS011;40693;43.884;20.340;2024-01-30T12:10:13;15.32;;;8.98;;
54795;SDS011;40693;43.884;20.340;2024-01-30T12:12:39;12.40;;;9.55;;
54795;SDS011;40693;43.884;20.340;2024-01-30T12:15:10;23.17;;;14.52;;
54795;SDS011;40693;43.884;20.340;2024-01-30T12:17:37;13.88;;;10.38;;
54795;SDS011;40693;43.884;20.340;2024-01-30T12:20:09;13.30;;;9.40;;
54795;SDS011;40693;43.884;20.340;2024-01-30T12:22:41;13.68;;;9.13;;
54795;SDS011;40693;43.884;20.340;2024-01-30T12:25:14;12.00;;;8.15;;
54795;SDS011;40693;43.884;20.340;2024-01-30T12:27:47;15.75;;;10.85;;
54795;SDS011;40693;43.884;20.340;2024-01-30T12:30:17;17.67;;;11.30;;
54795;SDS011;40693;43.884;20.340;2024-01-30T12:32:45;14.07;;;9.18;;
54795;SDS011;40693;43.884;20.340;2024-01-30T12:35:13;12.07;;;8.48;;
54795;SDS011;40693;43.884;20.340;2024-01-30T12:37:40;13.52;;;8.00;;
54795;SDS011;40693;43.884;20.340;2024-01-30T12:40:07;14.18;;;7.53;;
54795;SDS011;40693;43.884;20.340;2024-01-30T12:42:35;13.85;;;8.95;;
54795;SDS011;40693;43.884;20.340;2024-01-30T12:45:04;13.15;;;8.15;;
54795;SDS011;40693;43.884;20.340;2024-01-30T12:47:31;19.85;;;12.45;;
54795;SDS011;40693;43.884;20.340;2024-01-30T12:49:57;22.83;;;11.63;;
54795;SDS011;40693;43.884;20.340;2024-01-30T12:52:23;15.40;;;8.35;;
54795;SDS011;40693;43.884;20.340;2024-01-30T12:54:49;12.10;;;7.85;;
54795;SDS011;40693;43.884;20.340;2024-01-30T12:57:16;41.22;;;21.45;;
54795;SDS011;40693;43.884;20.340;2024-01-30T12:59:42;49.78;;;30.15;;
54795;SDS011;40693;43.884;20.340;2024-01-30T13:02:09;29.20;;;20.58;;
54795;SDS011;40693;43.884;20.340;2024-01-30T13:04:35;41.63;;;24.30;;
54795;SDS011;40693;43.884;20.340;2024-01-30T13:07:02;33.22;;;22.55;;
54795;SDS011;40693;43.884;20.340;2024-01-30T13:09:29;28.58;;;19.35;;
54795;SDS011;40693;43.884;20.340;2024-01-30T13:11:55;37.67;;;24.10;;
54795;SDS011;40693;43.884;20.340;2024-01-30T13:14:21;25.52;;;15.57;;
54795;SDS011;40693;43.884;20.340;2024-01-30T13:16:47;23.10;;;16.20;;
54795;SDS011;40693;43.884;20.340;2024-01-30T13:19:12;40.15;;;27.73;;
54795;SDS011;40693;43.884;20.340;2024-01-30T13:21:38;17.33;;;12.02;;
54795;SDS011;40693;43.884;20.340;2024-01-30T13:24:04;19.23;;;13.20;;
54795;SDS011;40693;43.884;20.340;2024-01-30T13:26:33;23.65;;;14.02;;
54795;SDS011;40693;43.884;20.340;2024-01-30T13:28:59;18.75;;;13.00;;
54795;SDS011;40693;43.884;20.340;2024-01-30T13:31:25;11.77;;;7.53;;
54795;SDS011;40693;43.884;20.340;2024-01-30T13:33:52;21.63;;;11.63;;
54795;SDS011;40693;43.884;20.340;2024-01-30T13:36:18;21.15;;;13.60;;
54795;SDS011;40693;43.884;20.340;2024-01-30T13:38:44;20.80;;;12.15;;
54795;SDS011;40693;43.884;20.340;2024-01-30T13:41:10;25.00;;;14.80;;
54795;SDS011;40693;43.884;20.340;2024-01-30T13:43:36;28.40;;;17.80;;
54795;SDS011;40693;43.884;20.340;2024-01-30T13:46:01;10.93;;;7.88;;
54795;SDS011;40693;43.884;20.340;2024-01-30T13:48:28;13.55;;;7.78;;
54795;SDS011;40693;43.884;20.340;2024-01-30T13:50:54;23.23;;;15.23;;
54795;SDS011;40693;43.884;20.340;2024-01-30T13:53:20;43.78;;;25.73;;
54795;SDS011;40693;43.884;20.340;2024-01-30T13:55:46;14.18;;;10.52;;
54795;SDS011;40693;43.884;20.340;2024-01-30T13:58:12;17.50;;;13.02;;
54795;SDS011;40693;43.884;20.340;2024-01-30T14:00:38;15.40;;;10.27;;
54795;SDS011;40693;43.884;20.340;2024-01-30T14:03:04;15.35;;;11.18;;
54795;SDS011;40693;43.884;20.340;2024-01-30T14:05:30;25.63;;;14.38;;
54795;SDS011;40693;43.884;20.340;2024-01-30T14:07:56;27.75;;;15.10;;
54795;SDS011;40693;43.884;20.340;2024-01-30T14:10:23;23.85;;;16.30;;